createdAt,value
2018-05-06T00:01:52.855Z,82.49
2018-05-06T00:04:56.189Z,82.65
2018-05-06T00:07:59.502Z,82.81
2018-05-06T00:11:04.343Z,83.02
2018-05-06T00:14:07.736Z,83.17
2018-05-06T00:17:11.141Z,83.27
2018-05-06T00:20:14.536Z,83.19
2018-05-06T00:23:17.956Z,82.50
2018-05-06T00:26:22.024Z,82.34
2018-05-06T00:29:25.428Z,82.60
2018-05-06T00:32:28.811Z,82.83
2018-05-06T00:35:32.130Z,83.09
2018-05-06T00:38:35.429Z,83.40
2018-05-06T00:41:38.749Z,83.85
2018-05-06T00:44:42.062Z,83.81
2018-05-06T00:47:46.167Z,83.48
2018-05-06T00:50:49.479Z,84.12
2018-05-06T00:53:53.651Z,84.69
2018-05-06T00:56:56.957Z,85.12
2018-05-06T01:00:00.360Z,85.70
2018-05-06T01:03:03.672Z,86.01
2018-05-06T01:06:06.997Z,86.06
2018-05-06T01:09:11.069Z,86.18
2018-05-06T01:12:14.403Z,85.64
2018-05-06T01:15:18.577Z,85.41
2018-05-06T01:18:21.919Z,85.61
2018-05-06T01:21:25.997Z,85.87
2018-05-06T01:24:29.324Z,86.14
2018-05-06T01:27:32.635Z,86.25
2018-05-06T01:30:36.742Z,86.30
2018-05-06T01:33:40.113Z,86.12
2018-05-06T01:36:43.450Z,85.53
2018-05-06T01:39:47.639Z,84.96
2018-05-06T01:42:51.016Z,85.06
2018-05-06T01:45:54.321Z,85.46
2018-05-06T01:48:57.702Z,85.70
2018-05-06T01:52:01.014Z,85.95
2018-05-06T01:55:04.363Z,86.18
2018-05-06T01:58:07.688Z,86.55
2018-05-06T02:01:11.022Z,86.94
2018-05-06T02:04:14.320Z,87.00
2018-05-06T02:07:17.640Z,87.20
2018-05-06T02:10:21.748Z,87.44
2018-05-06T02:13:25.130Z,87.48
2018-05-06T02:16:28.449Z,87.12
2018-05-06T02:19:31.801Z,87.04
2018-05-06T02:22:35.100Z,86.98
2018-05-06T02:25:38.425Z,87.00
2018-05-06T02:28:41.720Z,86.95
2018-05-06T02:31:45.129Z,86.96
2018-05-06T02:34:48.441Z,86.98
2018-05-06T02:37:51.808Z,86.99
2018-05-06T02:40:55.232Z,87.00
2018-05-06T02:43:58.585Z,87.04
2018-05-06T02:47:01.893Z,86.67
2018-05-06T02:50:05.237Z,86.25
2018-05-06T02:53:08.570Z,86.04
2018-05-06T02:56:12.721Z,85.86
2018-05-06T02:59:16.043Z,85.82
2018-05-06T03:02:19.431Z,86.05
2018-05-06T03:05:22.817Z,86.38
2018-05-06T03:08:27.185Z,86.44
2018-05-06T03:11:30.495Z,86.42
2018-05-06T03:14:34.584Z,86.45
2018-05-06T03:17:37.920Z,86.41
2018-05-06T03:20:41.247Z,86.62
2018-05-06T03:23:44.653Z,86.96
2018-05-06T03:26:48.004Z,86.97
2018-05-06T03:29:52.069Z,86.99
2018-05-06T03:32:55.477Z,87.22
2018-05-06T03:35:58.776Z,87.29
2018-05-06T03:39:02.193Z,87.18
2018-05-06T03:42:06.285Z,87.27
2018-05-06T03:45:09.647Z,87.55
2018-05-06T03:48:12.948Z,87.51
2018-05-06T03:51:16.398Z,87.25
2018-05-06T03:54:19.793Z,87.18
2018-05-06T03:57:41.211Z,86.95
2018-05-06T04:00:47.077Z,86.56
2018-05-06T04:03:50.406Z,86.23
2018-05-06T04:06:54.588Z,86.35
2018-05-06T04:09:58.759Z,86.76
2018-05-06T04:13:02.061Z,86.86
2018-05-06T04:16:05.392Z,86.90
2018-05-06T04:19:08.797Z,86.85
2018-05-06T04:22:12.120Z,86.91
2018-05-06T04:25:15.416Z,86.86
2018-05-06T04:28:18.802Z,86.63
2018-05-06T04:31:22.217Z,86.23
2018-05-06T04:34:25.553Z,85.79
2018-05-06T04:37:28.856Z,85.40
2018-05-06T04:40:32.189Z,84.61
2018-05-06T04:43:35.507Z,84.11
2018-05-06T04:46:38.915Z,83.73
2018-05-06T04:49:42.297Z,83.31
2018-05-06T04:52:45.694Z,82.90
2018-05-06T04:55:49.012Z,82.27
2018-05-06T04:58:52.357Z,81.63
2018-05-06T05:01:55.682Z,81.18
2018-05-06T05:04:59.106Z,80.63
2018-05-06T05:08:02.490Z,79.74
2018-05-06T05:11:05.880Z,79.12
2018-05-06T05:14:09.303Z,77.96
2018-05-06T05:17:12.697Z,77.37
2018-05-06T05:20:16.028Z,76.82
2018-05-06T05:23:20.144Z,75.75
2018-05-06T05:26:24.316Z,74.80
2018-05-06T05:29:27.675Z,74.32
2018-05-06T05:32:30.996Z,73.93
2018-05-06T05:35:34.417Z,72.58
2018-05-06T05:38:37.834Z,71.88
2018-05-06T05:41:41.984Z,72.06
2018-05-06T05:44:46.152Z,71.87
2018-05-06T05:47:49.559Z,71.88
2018-05-06T05:50:52.827Z,71.63
2018-05-06T05:53:56.176Z,71.31
2018-05-06T05:57:00.284Z,69.53
2018-05-06T06:00:04.399Z,68.84
2018-05-06T06:03:07.747Z,67.95
2018-05-06T06:06:11.190Z,67.37
2018-05-06T06:09:14.493Z,66.78
2018-05-06T06:12:17.827Z,65.87
2018-05-06T06:15:22.008Z,64.67
2018-05-06T06:18:25.452Z,64.04
2018-05-06T06:21:28.952Z,63.74
2018-05-06T06:24:32.311Z,62.35
2018-05-06T06:27:35.689Z,61.28
2018-05-06T06:30:39.052Z,59.84
2018-05-06T06:33:42.557Z,58.06
2018-05-06T06:36:45.888Z,56.99
2018-05-06T06:39:49.217Z,56.44
2018-05-06T06:42:52.694Z,55.92
2018-05-06T06:45:56.005Z,54.92
2018-05-06T06:48:59.336Z,54.34
2018-05-06T06:52:03.423Z,53.66
2018-05-06T06:55:06.760Z,53.15
2018-05-06T06:58:10.104Z,52.82
2018-05-06T07:01:13.510Z,51.63
2018-05-06T07:04:16.863Z,50.77
2018-05-06T07:07:20.221Z,50.65
2018-05-06T07:10:24.113Z,49.95
2018-05-06T07:13:27.458Z,50.24
2018-05-06T07:16:31.562Z,50.27
2018-05-06T07:19:35.766Z,49.85
2018-05-06T07:22:39.072Z,50.14
2018-05-06T07:25:42.416Z,49.26
2018-05-06T07:28:45.724Z,48.62
2018-05-06T07:31:49.145Z,50.04
2018-05-06T07:34:52.532Z,50.42
2018-05-06T07:37:55.977Z,50.39
2018-05-06T07:41:00.048Z,50.57
2018-05-06T07:44:03.376Z,49.09
2018-05-06T07:47:06.782Z,48.80
2018-05-06T07:50:10.112Z,48.38
2018-05-06T07:53:13.433Z,48.11
2018-05-06T07:56:16.785Z,46.86
2018-05-06T07:59:20.122Z,47.04
2018-05-06T08:02:23.486Z,46.24
2018-05-06T08:05:27.576Z,45.84
2018-05-06T08:08:30.933Z,45.79
2018-05-06T08:11:34.254Z,46.73
2018-05-06T08:14:37.700Z,47.48
2018-05-06T08:17:41.799Z,47.21
2018-05-06T08:20:45.192Z,47.15
2018-05-06T08:23:48.537Z,46.84
2018-05-06T08:26:52.701Z,47.65
2018-05-06T08:29:56.022Z,48.06
2018-05-06T08:32:59.430Z,48.78
2018-05-06T08:36:02.813Z,49.00
2018-05-06T08:39:06.153Z,49.13
2018-05-06T08:42:09.501Z,49.20
2018-05-06T08:45:12.818Z,49.37
2018-05-06T08:48:17.024Z,48.86
2018-05-06T08:51:20.347Z,48.86
2018-05-06T08:54:24.445Z,49.24
2018-05-06T08:57:27.821Z,49.37
2018-05-06T09:00:31.155Z,49.03
2018-05-06T09:03:34.484Z,48.27
2018-05-06T09:06:37.918Z,47.24
2018-05-06T09:09:41.240Z,47.58
2018-05-06T09:12:44.573Z,46.90
2018-05-06T09:15:47.944Z,47.07
2018-05-06T09:18:51.313Z,46.31
2018-05-06T09:21:54.647Z,48.04
2018-05-06T09:24:58.016Z,49.99
2018-05-06T09:28:01.354Z,48.64
2018-05-06T09:31:05.452Z,48.18
2018-05-06T09:34:10.294Z,48.07
2018-05-06T09:37:13.629Z,48.71
2018-05-06T09:40:16.991Z,48.92
2018-05-06T09:43:20.300Z,48.13
2018-05-06T09:46:24.419Z,46.08
2018-05-06T09:49:28.504Z,46.52
2018-05-06T09:52:31.822Z,46.06
2018-05-06T09:55:35.921Z,45.86
2018-05-06T09:58:39.242Z,45.80
2018-05-06T10:01:43.335Z,45.54
2018-05-06T10:31:06.177Z,45.69
2018-05-06T10:34:09.576Z,41.90
2018-05-06T10:37:12.974Z,43.26
2018-05-06T10:40:16.367Z,45.32
2018-05-06T10:43:19.749Z,47.19
2018-05-06T10:46:23.107Z,48.85
2018-05-06T10:49:27.588Z,49.56
2018-05-06T10:52:30.916Z,50.80
2018-05-06T10:55:35.402Z,51.58
2018-05-06T10:58:38.713Z,52.63
2018-05-06T11:01:42.059Z,52.68
2018-05-06T11:04:45.434Z,52.71
2018-05-06T11:07:49.577Z,52.63
2018-05-06T11:10:52.902Z,52.45
2018-05-06T11:13:56.378Z,51.68
2018-05-06T11:16:59.720Z,52.44
2018-05-06T11:20:03.064Z,51.98
2018-05-06T11:23:06.369Z,50.79
2018-05-06T11:26:09.841Z,50.94
2018-05-06T11:29:13.221Z,50.93
2018-05-06T11:32:16.567Z,51.09
2018-05-06T11:35:19.913Z,51.41
2018-05-06T11:38:23.269Z,50.72
2018-05-06T11:41:26.630Z,50.46
2018-05-06T11:44:29.986Z,50.75
2018-05-06T11:47:33.319Z,50.50
2018-05-06T11:50:36.657Z,50.29
2018-05-06T11:53:40.778Z,50.05
2018-05-06T11:56:44.222Z,50.39
2018-05-06T11:59:47.605Z,50.36
2018-05-06T12:02:50.939Z,49.37
2018-05-06T12:05:54.445Z,49.71
2018-05-06T12:08:58.643Z,50.13
2018-05-06T12:12:01.993Z,50.47
2018-05-06T12:15:05.429Z,50.16
2018-05-06T12:18:08.743Z,50.06
2018-05-06T12:21:12.147Z,48.84
2018-05-06T12:24:15.533Z,48.63
2018-05-06T12:27:18.948Z,47.86
2018-05-06T12:30:22.257Z,46.95
2018-05-06T12:33:25.721Z,46.38
2018-05-06T12:36:29.029Z,46.85
2018-05-06T12:39:32.389Z,46.98
2018-05-06T12:42:35.782Z,47.21
2018-05-06T12:45:39.255Z,46.55
2018-05-06T12:48:42.589Z,45.39
2018-05-06T12:51:46.775Z,45.86
2018-05-06T12:54:50.887Z,46.13
2018-05-06T12:57:54.273Z,47.20
2018-05-06T13:00:57.602Z,47.36
2018-05-06T13:04:01.755Z,47.85
2018-05-06T13:07:05.065Z,47.99
2018-05-06T13:10:08.418Z,48.13
2018-05-06T13:13:12.505Z,47.92
2018-05-06T13:16:15.848Z,47.66
2018-05-06T13:19:19.151Z,47.20
2018-05-06T13:22:22.489Z,47.07
2018-05-06T13:25:25.814Z,47.54
2018-05-06T13:28:29.166Z,46.83
2018-05-06T13:31:32.483Z,47.25
2018-05-06T13:34:35.834Z,46.50
2018-05-06T13:37:39.995Z,47.52
2018-05-06T13:40:43.326Z,47.48
2018-05-06T13:43:46.642Z,48.15
2018-05-06T13:46:50.812Z,47.44
2018-05-06T13:49:54.290Z,46.76
2018-05-06T13:52:57.617Z,47.11
2018-05-06T13:56:00.938Z,47.50
2018-05-06T13:59:04.325Z,47.25
2018-05-06T14:02:07.724Z,46.54
2018-05-06T14:05:11.118Z,45.55
2018-05-06T14:08:14.440Z,46.11
2018-05-06T14:11:17.810Z,45.94
2018-05-06T14:14:21.135Z,46.59
2018-05-06T14:17:24.483Z,45.68
2018-05-06T14:20:27.824Z,44.00
2018-05-06T14:23:31.168Z,43.79
2018-05-06T14:26:34.506Z,42.96
2018-05-06T14:29:37.900Z,43.20
2018-05-06T14:32:41.312Z,41.31
2018-05-06T14:35:44.714Z,40.77
2018-05-06T14:38:48.098Z,40.49
2018-05-06T14:41:52.448Z,40.67
2018-05-06T14:44:57.282Z,40.24
2018-05-06T14:48:15.636Z,40.67
2018-05-06T14:51:19.072Z,39.88
2018-05-06T14:54:22.509Z,40.06
2018-05-06T14:57:25.835Z,40.31
2018-05-06T15:00:29.213Z,40.13
2018-05-06T15:03:32.620Z,39.70
2018-05-06T15:06:35.967Z,38.41
2018-05-06T15:09:39.295Z,38.56
2018-05-06T15:12:42.663Z,39.54
2018-05-06T15:15:46.026Z,40.48
2018-05-06T15:18:49.376Z,40.45
2018-05-06T15:21:52.690Z,39.29
2018-05-06T15:24:56.039Z,38.81
2018-05-06T15:28:00.125Z,38.58
2018-05-06T15:31:03.493Z,38.71
2018-05-06T15:34:06.818Z,38.33
2018-05-06T15:37:10.170Z,38.64
2018-05-06T15:40:13.570Z,38.19
2018-05-06T15:43:17.041Z,38.03
2018-05-06T15:46:20.418Z,38.11
2018-05-06T15:49:23.749Z,38.56
2018-05-06T15:52:27.838Z,38.66
2018-05-06T15:55:31.184Z,38.17
2018-05-06T15:58:34.526Z,38.17
2018-05-06T16:01:37.945Z,38.23
2018-05-06T16:04:41.270Z,37.96
2018-05-06T16:07:45.394Z,37.95
2018-05-06T16:10:49.480Z,38.29
2018-05-06T16:13:52.867Z,38.44
2018-05-06T16:16:56.207Z,38.57
2018-05-06T16:19:59.562Z,38.41
2018-05-06T16:23:02.989Z,38.88
2018-05-06T16:26:07.582Z,38.35
2018-05-06T16:29:10.896Z,38.46
2018-05-06T16:32:14.233Z,38.35
2018-05-06T16:35:18.305Z,38.14
2018-05-06T16:38:21.658Z,37.58
2018-05-06T16:41:25.037Z,38.24
2018-05-06T16:44:29.149Z,38.38
2018-05-06T16:47:33.229Z,38.22
2018-05-06T16:50:36.685Z,38.14
2018-05-06T16:53:40.068Z,37.50
2018-05-06T16:56:44.251Z,37.27
2018-05-06T16:59:47.566Z,37.28
2018-05-06T17:02:50.968Z,37.57
2018-05-06T17:05:54.307Z,38.02
2018-05-06T17:08:57.752Z,38.45
2018-05-06T17:12:01.170Z,37.92
2018-05-06T17:15:04.564Z,37.42
2018-05-06T17:18:07.887Z,37.87
2018-05-06T17:21:12.015Z,38.55
2018-05-06T17:24:15.368Z,40.29
2018-05-06T17:27:18.795Z,42.71
2018-05-06T17:30:22.966Z,44.47
2018-05-06T17:33:26.343Z,46.40
2018-05-06T17:36:29.688Z,47.68
2018-05-06T17:39:33.188Z,48.67
2018-05-06T17:42:36.597Z,49.65
2018-05-06T17:45:39.964Z,50.56
2018-05-06T17:48:43.330Z,51.42
2018-05-06T17:51:46.802Z,52.10
2018-05-06T17:54:50.135Z,52.49
2018-05-06T17:57:53.584Z,52.95
2018-05-06T18:00:56.937Z,53.45
2018-05-06T18:04:00.300Z,53.75
2018-05-06T18:07:03.627Z,54.26
2018-05-06T18:10:07.098Z,54.82
2018-05-06T18:13:10.440Z,55.24
2018-05-06T18:16:13.809Z,55.68
2018-05-06T18:19:18.278Z,56.38
2018-05-06T18:22:21.617Z,57.00
2018-05-06T18:25:25.031Z,57.88
2018-05-06T18:28:29.515Z,58.57
2018-05-06T18:31:32.828Z,59.48
2018-05-06T18:34:37.713Z,60.37
2018-05-06T18:37:41.035Z,61.05
2018-05-06T18:40:44.410Z,61.68
2018-05-06T18:43:47.746Z,62.13
2018-05-06T18:46:51.124Z,62.67
2018-05-06T18:49:54.505Z,63.17
2018-05-06T18:52:57.964Z,63.45
2018-05-06T18:56:01.304Z,63.83
2018-05-06T18:59:04.767Z,63.99
2018-05-06T19:02:08.120Z,64.36
2018-05-06T19:05:11.484Z,64.79
2018-05-06T19:08:15.682Z,65.29
2018-05-06T19:11:19.170Z,65.72
2018-05-06T19:14:22.502Z,65.98
2018-05-06T19:17:26.616Z,66.25
2018-05-06T19:20:30.820Z,66.49
2018-05-06T19:23:34.183Z,66.65
2018-05-06T19:26:37.542Z,66.89
2018-05-06T19:29:41.866Z,67.10
2018-05-06T19:32:45.166Z,67.44
2018-05-06T19:35:48.492Z,67.69
2018-05-06T19:38:51.984Z,67.91
2018-05-06T19:41:55.363Z,68.19
2018-05-06T19:44:59.461Z,68.33
2018-05-06T19:48:02.818Z,68.56
2018-05-06T19:51:06.150Z,68.89
2018-05-06T19:54:09.753Z,68.45
2018-05-06T19:57:13.110Z,68.19
2018-05-06T20:00:16.467Z,68.20
2018-05-06T20:03:19.838Z,68.17
2018-05-06T20:06:23.239Z,67.80
2018-05-06T20:09:26.577Z,67.66
2018-05-06T20:12:30.690Z,67.03
2018-05-06T20:15:35.283Z,67.01
2018-05-06T20:18:39.129Z,67.06
2018-05-06T20:21:43.615Z,67.05
2018-05-06T20:24:47.839Z,66.80
2018-05-06T20:27:51.251Z,66.47
2018-05-06T20:30:54.623Z,66.59
2018-05-06T20:33:57.945Z,66.90
2018-05-06T20:37:01.352Z,67.09
2018-05-06T20:40:04.730Z,67.12
2018-05-06T20:43:08.072Z,67.47
2018-05-06T20:46:12.312Z,67.85
2018-05-06T20:49:15.665Z,67.53
2018-05-06T20:52:19.764Z,67.88
2018-05-06T20:55:23.214Z,68.36
2018-05-06T20:58:26.510Z,68.48
2018-05-06T21:01:30.639Z,68.93
2018-05-06T21:04:33.952Z,69.31
2018-05-06T21:07:37.374Z,69.77
2018-05-06T21:10:40.691Z,70.01
2018-05-06T21:13:44.048Z,69.96
2018-05-06T21:16:47.363Z,70.30
2018-05-06T21:19:50.765Z,69.93
2018-05-06T21:22:54.296Z,69.59
2018-05-06T21:25:57.731Z,69.86
2018-05-06T21:29:01.054Z,70.01
2018-05-06T21:32:04.406Z,70.17
2018-05-06T21:35:08.497Z,70.47
2018-05-06T21:38:11.849Z,70.62
2018-05-06T21:41:15.157Z,70.66
2018-05-06T21:44:18.585Z,70.52
2018-05-06T21:47:21.998Z,70.16
2018-05-06T21:50:25.348Z,70.33
2018-05-06T21:53:28.677Z,70.20
2018-05-06T21:56:32.039Z,70.22
2018-05-06T21:59:35.365Z,70.39
2018-05-06T22:02:38.736Z,70.39
2018-05-06T22:05:42.062Z,70.51
2018-05-06T22:08:45.403Z,70.58
2018-05-06T22:11:48.806Z,70.58
2018-05-06T22:14:53.016Z,70.39
2018-05-06T22:17:56.415Z,70.71
2018-05-06T22:20:59.828Z,70.72
2018-05-06T22:24:03.928Z,70.77
2018-05-06T22:27:07.342Z,71.12
2018-05-06T22:30:10.666Z,71.10
2018-05-06T22:33:14.004Z,71.07
2018-05-06T22:36:17.409Z,71.50
2018-05-06T22:39:20.934Z,71.85
2018-05-06T22:42:24.327Z,72.04
2018-05-06T22:45:27.665Z,71.50
2018-05-06T22:48:31.016Z,71.29
2018-05-06T22:51:34.436Z,71.12
2018-05-06T22:54:37.833Z,71.24
2018-05-06T22:57:41.176Z,71.72
2018-05-06T23:00:44.536Z,72.41
2018-05-06T23:03:47.963Z,73.27
2018-05-06T23:06:51.299Z,74.21
2018-05-06T23:09:54.728Z,75.25
2018-05-06T23:12:58.840Z,76.03
2018-05-06T23:16:02.189Z,76.74
2018-05-06T23:19:05.651Z,77.51
2018-05-06T23:22:09.770Z,78.04
2018-05-06T23:25:13.198Z,78.68
2018-05-06T23:28:16.556Z,78.97
2018-05-06T23:31:19.904Z,79.35
2018-05-06T23:34:23.277Z,79.62
2018-05-06T23:37:27.392Z,80.15
2018-05-06T23:40:31.498Z,80.53
2018-05-06T23:43:34.875Z,80.94
2018-05-06T23:46:38.288Z,81.12
2018-05-06T23:49:41.726Z,81.43
2018-05-06T23:52:45.911Z,81.76
2018-05-06T23:55:49.314Z,82.09
2018-05-06T23:58:52.644Z,82.35
